Data for 06/28/2006

Time Sea-Level Adjusted Pressure Absolute Pressure Temperature Relative Humidity Dew Point   
(mb) (inHg) (mb) (inHg) (C) (F) (%) (C) (F)
00:05 1020 30.12 849 25.07 16.9 62.3 49 6.2 43.1
00:10 1020 30.12 849 25.07 16.6 61.8 49 6 42.8
00:15 1020 30.12 849 25.07 16.5 61.8 49 6 42.8
00:20 1020 30.12 849 25.07 16.5 61.8 49 6 42.8
00:25 1020 30.12 849 25.07 16.3 61.3 50 6.1 42.9
00:30 1020 30.12 849 25.07 16.1 60.9 54 7 44.5
00:35 1020 30.12 849 25.07 16.2 61.2 50 5.9 42.6
00:40 1020 30.12 849 25.07 16.4 61.5 49 5.9 42.6
00:45 1020 30.12 849 25.07 16.3 61.4 49 5.8 42.4
00:50 1020 30.12 849 25.07 16 60.8 51 6 42.8
00:55 1020 30.12 849 25.07 15.6 60 52 5.9 42.6
01:00 1020 30.12 849 25.07 15.4 59.6 52 5.7 42.3
01:05 1020 30.12 849 25.07 15.6 60 52 5.9 42.6
01:10 1020 30.12 849 25.07 15.3 59.6 52 5.8 42.4
01:15 1020 30.12 849 25.07 15.2 59.4 53 5.8 42.4
01:20 1020 30.12 849 25.07 15 58.9 55 6.1 42.9
01:25 1020 30.12 849 25.07 15.2 59.4 52 5.6 42
01:30 1020 30.12 849 25.07 15.5 59.8 50 5.2 41.4
01:35 1020 30.12 849 25.07 15.7 60.3 51 5.8 42.5
01:40 1020 30.12 849 25.07 15.3 59.5 52 5.6 42.1
01:45 1020 30.12 849 25.07 15.1 59.2 53 5.8 42.4
01:50 1020 30.12 849 25.07 14.9 58.9 58 6.7 44.1
01:55 1020 30.12 849 25.07 14.8 58.7 55 5.9 42.6
02:00 1020 30.12 849 25.07 14.6 58.2 56 5.8 42.5
02:05 1020 30.12 849 25.07 14.5 58.1 56 6 42.8
02:10 1020 30.12 849 25.07 14.4 57.9 57 6 42.7
02:15 1020 30.12 849 25.07 14.8 58.6 52 5.2 41.4
02:20 1020 30.12 849 25.07 15.5 59.8 50 5.1 41.2
02:25 1020 30.12 849 25.07 15.8 60.5 50 5.5 42
02:30 1020 30.12 849 25.07 15.6 60.1 51 5.5 41.9
02:35 1020 30.12 849 25.07 16 60.7 51 6 42.8
02:40 1020 30.12 849 25.07 15.9 60.7 50 5.6 42
02:45 1020 30.12 850 25.1 15.9 60.5 51 5.8 42.4
02:50 1020 30.12 850 25.1 15.4 59.6 54 6.1 42.9
02:55 1020 30.12 850 25.1 14.9 58.8 54 5.7 42.2
03:00 1020 30.12 850 25.1 14.9 58.8 52 5.3 41.6
03:05 1020 30.12 850 25.1 15.2 59.4 52 5.6 42
03:10 1020 30.12 850 25.1 15.2 59.4 52 5.6 42.1
03:15 1020 30.12 850 25.1 15.3 59.5 54 6.3 43.3
03:20 1020 30.12 850 25.1 15.3 59.5 52 5.6 42.2
03:25 1020 30.12 850 25.1 15.1 59.2 53 5.6 42.1
03:30 1020 30.12 850 25.1 15.1 59.2 53 5.8 42.4
03:35 1021 30.15 850 25.1 14.9 58.7 59 6.9 44.4
03:40 1021 30.15 850 25.1 14.9 58.7 55 5.9 42.6
03:45 1021 30.15 850 25.1 14.8 58.7 54 5.8 42.4
03:50 1021 30.15 850 25.1 14.6 58.3 55 5.8 42.5
03:55 1020 30.12 850 25.1 14.3 57.7 57 5.9 42.6
04:00 1020 30.12 850 25.1 14 57.2 59 6.1 43
04:05 1020 30.12 850 25.1 13.9 56.9 57 5.5 41.9
04:10 1020 30.12 850 25.1 14.3 57.7 55 5.4 41.7
04:15 1021 30.15 850 25.1 14.4 57.9 55 5.6 42.1
04:20 1021 30.15 850 25.1 14.4 57.9 56 5.7 42.3
04:25 1021 30.15 850 25.1 14.3 57.7 56 5.8 42.5
04:30 1021 30.15 850 25.1 14.1 57.3 58 5.9 42.7
04:35 1021 30.15 850 25.1 13.6 56.5 60 6.1 43
04:40 1021 30.15 850 25.1 13.4 56 60 5.8 42.4
04:45 1021 30.15 850 25.1 13.4 56.2 62 6.3 43.3
04:50 1021 30.15 850 25.1 13.7 56.7 57 5.4 41.8
04:55 1021 30.15 850 25.1 14.3 57.8 55 5.4 41.7
05:00 1021 30.15 850 25.1 14.6 58.3 53 5.3 41.6
05:05 1021 30.15 850 25.1 15 59 52 5.4 41.7
05:10 1021 30.15 850 25.1 14.8 58.7 55 6 42.7
05:15 1021 30.15 850 25.1 14.4 57.9 56 5.8 42.5
05:20 1021 30.15 850 25.1 14 57.1 58 5.8 42.4
05:25 1021 30.15 850 25.1 13.7 56.6 58 5.7 42.2
05:30 1021 30.15 850 25.1 13.6 56.4 58 5.6 42.1
05:35 1021 30.15 850 25.1 13.8 56.9 56 5.2 41.4
05:40 1021 30.15 850 25.1 14.2 57.6 54 5 41.1
05:45 1021 30.15 850 25.1 14.9 58.9 51 4.9 40.9
05:50 1021 30.15 850 25.1 14.8 58.7 52 5.3 41.5
05:55 1021 30.15 850 25.1 14.9 58.7 53 5.6 42
06:00 1021 30.15 850 25.1 14.6 58.3 54 5.6 42
06:05 1021 30.15 850 25.1 14.4 57.9 56 5.7 42.3
06:10 1021 30.15 850 25.1 14.3 57.8 56 5.7 42.3
06:15 1021 30.15 850 25.1 14.4 58 55 5.7 42.2
06:20 1021 30.15 850 25.1 14.5 58.1 55 5.8 42.4
06:25 1021 30.15 850 25.1 14.4 57.9 57 5.9 42.7
06:30 1021 30.15 850 25.1 13.9 57 59 6 42.8
06:35 1021 30.15 850 25.1 13.9 57 58 5.8 42.4
06:40 1021 30.15 850 25.1 14.1 57.3 57 5.8 42.5
06:45 1021 30.15 850 25.1 14.6 58.2 54 5.5 41.8
06:50 1021 30.15 850 25.1 15 59.1 53 5.7 42.3
06:55 1021 30.15 851 25.13 15.3 59.5 52 5.6 42.2
07:00 1021 30.15 851 25.13 15.6 60.1 53 6.2 43.1
07:05 1021 30.15 851 25.13 15.7 60.2 53 6.3 43.4
07:10 1021 30.15 851 25.13 15.7 60.3 54 6.6 43.9
07:15 1021 30.15 851 25.13 15.7 60.2 54 6.6 43.8
07:20 1021 30.15 851 25.13 15.5 60 54 6.5 43.6
07:25 1021 30.15 850 25.1 15.7 60.2 55 6.8 44.2
07:30 1021 30.15 850 25.1 15.9 60.6 55 6.9 44.5
07:35 1021 30.15 850 25.1 16.3 61.3 52 6.4 43.6
07:40 1021 30.15 850 25.1 16.7 62.1 51 6.6 43.9
07:45 1021 30.15 850 25.1 17.2 62.9 52 7.5 45.4
07:50 1021 30.15 850 25.1 17.6 63.7 50 7.3 45.1
07:55 1021 30.15 850 25.1 17.9 64.2 50 7.5 45.5
08:00 1021 30.15 850 25.1 17.9 64.1 51 7.8 46
08:05 1021 30.15 850 25.1 17.8 64 51 7.7 45.9
08:10 1021 30.15 850 25.1 17.9 64.2 49 7.2 45
08:15 1021 30.15 850 25.1 18.3 64.9 49 7.4 45.3
08:20 1021 30.15 850 25.1 18.8 65.8 49 7.9 46.2
08:25 1021 30.15 851 25.13 19.4 67 45 7.4 45.2
08:30 1021 30.15 851 25.13 20 68 44 7.6 45.7
08:35 1021 30.15 851 25.13 20.6 69 43 7.7 45.9
08:40 1021 30.15 851 25.13 21.4 70.5 40 7.3 45.2
08:45 1021 30.15 851 25.13 21.5 70.6 40 7.5 45.5
08:50 1021 30.15 851 25.13 21.5 70.7 41 8 46.4
08:55 1021 30.15 851 25.13 21.4 70.6 41 7.9 46.3
09:00 1021 30.15 851 25.13 22 71.5 40 7.9 46.3
09:05 1021 30.15 851 25.13 22.2 72 40 8.3 46.9
09:10 1021 30.15 851 25.13 22.4 72.4 40 8.2 46.8
09:15 1022 30.18 851 25.13 22 71.5 42 8.6 47.4
09:20 1022 30.18 851 25.13 22.3 72.1 41 8.5 47.2
09:25 1022 30.18 851 25.13 22.6 72.7 39 8.3 46.9
09:30 1022 30.18 851 25.13 22.2 72 40 8.1 46.6
09:35 1021 30.15 851 25.13 23.2 73.7 36 7.5 45.5
09:40 1021 30.15 851 25.13 22.6 72.7 40 8.6 47.5
09:45 1021 30.15 851 25.13 22.4 72.4 40 8.5 47.3
09:50 1021 30.15 851 25.13 22.7 72.9 40 8.6 47.5
09:55 1021 30.15 851 25.13 22.2 72 40 8.1 46.6
10:00 1021 30.15 851 25.13 22 71.7 42 8.8 47.8
10:05 1021 30.15 851 25.13 22.3 72.2 41 8.6 47.4
10:10 1021 30.15 851 25.13 23 73.4 38 8.2 46.7
10:15 1021 30.15 851 25.13 23.6 74.5 37 8.3 47
10:20 1021 30.15 850 25.1 24.3 75.7 35 8.2 46.7
10:25 1021 30.15 850 25.1 24.9 76.7 34 7.9 46.3
10:30 1021 30.15 850 25.1 24.8 76.6 35 8.6 47.6
10:35 1021 30.15 850 25.1 24.6 76.2 35 8.4 47.1
10:40 1021 30.15 850 25.1 24.9 76.7 34 8.4 47.1
10:45 1021 30.15 850 25.1 25.4 77.6 33 8.3 47
10:50 1021 30.15 850 25.1 25.5 78 34 8.7 47.6
10:55 1021 30.15 850 25.1 25 77 34 8.3 46.9
11:00 1021 30.15 850 25.1 25.8 78.5 32 8.3 47
11:05 1021 30.15 850 25.1 26.7 80 31 8.4 47.1
11:10 1021 30.15 850 25.1 26.1 79 32 8.3 47
11:15 1021 30.15 850 25.1 26 78.7 32 8.2 46.8
11:20 1021 30.15 850 25.1 26.8 80.2 32 8.8 47.9
11:25 1021 30.15 850 25.1 27 80.6 31 8.6 47.6
11:30 1021 30.15 850 25.1 27 80.6 29 8 46.3
11:35 1021 30.15 850 25.1 27.6 81.6 28 7.9 46.2
11:40 1021 30.15 850 25.1 27.9 82.3 28 8 46.5
11:45 1021 30.15 850 25.1 26.7 80.1 30 8.2 46.8
11:50 1021 30.15 850 25.1 26.8 80.3 27 6.3 43.3
11:55 1021 30.15 850 25.1 27 80.6 27 6.8 44.2
12:00 1021 30.15 850 25.1 26.9 80.4 28 7.3 45.1
12:05 1021 30.15 850 25.1 27.4 81.3 28 7.5 45.5
12:10 1021 30.15 850 25.1 28.1 82.5 27 7.9 46.2
12:15 1021 30.15 850 25.1 27.5 81.5 28 7.7 45.9
12:20 1021 30.15 850 25.1 28.4 83.1 26 7.5 45.5
12:25 1021 30.15 850 25.1 29.2 84.5 25 7.3 45.1
12:30 1021 30.15 850 25.1 29.3 84.7 24 7.1 44.8
12:35 1021 30.15 850 25.1 29.1 84.3 24 7 44.6
12:40 1021 30.15 850 25.1 29.5 85.1 24 7.3 45.2
12:45 1021 30.15 850 25.1 28.7 83.7 24 6.5 43.7
12:50 1021 30.15 850 25.1 28.2 82.7 24 5.9 42.6
12:55 1021 30.15 850 25.1 28.9 84 23 5.8 42.5
13:00 1021 30.15 850 25.1 28.7 83.6 21 4.8 40.7
13:05 1021 30.15 850 25.1 28.4 83.1 24 6 42.8
13:10 1021 30.15 850 25.1 29.3 84.8 20 4.5 40.1
13:15 1021 30.15 850 25.1 29.4 85 21 5.3 41.6
13:20 1021 30.15 850 25.1 29.6 85.3 19 4 39.2
13:25 1021 30.15 850 25.1 30.2 86.4 20 5.1 41.2
13:30 1021 30.15 850 25.1 30.9 87.6 18 4.1 39.5
13:35 1021 30.15 850 25.1 31.2 88.1 19 5.1 41.2
13:40 1021 30.15 850 25.1 30.4 86.7 18 4.1 39.4
13:45 1021 30.15 850 25.1 29.6 85.3 19 3.5 38.3
13:50 1021 30.15 850 25.1 30.5 86.8 15 1.4 34.6
13:55 1021 30.15 850 25.1 30.6 87.1 14 0.8 33.5
14:00 1021 30.15 850 25.1 31.2 88.1 15 1.7 35.1
14:05 1021 30.15 850 25.1 31.5 88.6 14 1.5 34.8
14:10 1021 30.15 850 25.1 31.5 88.7 15 2.2 36
14:15 1021 30.15 850 25.1 31.9 89.4 14 1.5 34.8
14:20 1020 30.12 850 25.1 32.1 89.8 14 1.8 35.2
14:25 1020 30.12 850 25.1 32.6 90.6 14 2.5 36.5
14:30 1020 30.12 850 25.1 33 91.4 15 3.6 38.5
14:35 1020 30.12 850 25.1 31.5 88.8 16 3.1 37.6
14:40 1020 30.12 850 25.1 31.8 89.3 15 2.7 36.8
14:45 1020 30.12 850 25.1 32.4 90.3 15 3 37.4
14:50 1020 30.12 850 25.1 32.4 90.4 16 3.5 38.3
14:55 1020 30.12 850 25.1 32.1 89.8 15 2.8 37.1
15:00 1020 30.12 849 25.07 31.2 88.2 18 4.7 40.5
15:05 1020 30.12 849 25.07 31.5 88.8 16 2.9 37.2
15:10 1020 30.12 849 25.07 32 89.6 15 2.8 37.1
15:15 1020 30.12 849 25.07 32.6 90.6 16 3.6 38.5
15:20 1020 30.12 849 25.07 32.2 90 16 3.4 38.1
15:25 1020 30.12 849 25.07 32.4 90.2 15 2.6 36.7
15:30 1020 30.12 849 25.07 32.9 91.3 15 3.5 38.3
15:35 1020 30.12 849 25.07 31.6 88.8 16 2.6 36.8
15:40 1020 30.12 849 25.07 30.5 87 16 1.8 35.3
15:45 1020 30.12 849 25.07 30.8 87.4 15 1.6 34.8
15:50 1020 30.12 849 25.07 31.5 88.7 15 1.7 35
15:55 1020 30.12 849 25.07 32.3 90.2 15 2.4 36.3
16:00 1020 30.12 849 25.07 32.2 89.9 15 3.1 37.6
16:05 1020 30.12 849 25.07 31.5 88.8 16 2.8 37.1
16:10 1020 30.12 849 25.07 32.5 90.5 15 2.6 36.7
16:15 1020 30.12 849 25.07 32.5 90.4 15 2.9 37.2
16:20 1020 30.12 849 25.07 32.6 90.6 15 2.5 36.6
16:25 1020 30.12 849 25.07 31.9 89.5 16 3.1 37.6
16:30 1020 30.12 849 25.07 32.2 89.9 15 2.5 36.4
16:35 1019 30.09 849 25.07 32.7 90.8 15 3 37.4
16:40 1019 30.09 849 25.07 32.7 90.8 15 2.8 37
16:45 1019 30.09 849 25.07 32.7 90.8 16 3.6 38.4
16:50 1019 30.09 849 25.07 32.4 90.4 15 3.1 37.6
16:55 1019 30.09 849 25.07 32.2 90 16 3.8 38.8
17:00 1019 30.09 849 25.07 32.1 89.8 16 3.1 37.6
17:05 1019 30.09 848 25.04 32 89.5 16 3.3 37.9
17:10 1019 30.09 848 25.04 31.4 88.5 16 2.8 37
17:15 1019 30.09 848 25.04 31.3 88.3 17 3.8 38.8
17:20 1019 30.09 848 25.04 31.5 88.8 16 3 37.3
17:25 1019 30.09 848 25.04 30.8 87.5 17 3.5 38.4
17:30 1019 30.09 848 25.04 30.5 87 18 4 39.1
17:35 1019 30.09 848 25.04 30.3 86.5 18 3.3 37.9
17:40 1019 30.09 848 25.04 30 86 18 3.6 38.5
17:45 1019 30.09 848 25.04 30.2 86.3 20 4.9 40.8
17:50 1019 30.09 848 25.04 30 86 19 4.5 40
17:55 1019 30.09 848 25.04 29.9 85.8 19 4.1 39.4
18:00 1019 30.09 848 25.04 29.9 85.9 19 4.3 39.7
18:05 1019 30.09 848 25.04 29.7 85.4 20 4.4 39.8
18:10 1019 30.09 848 25.04 29.5 85.2 20 4.4 40
18:15 1019 30.09 848 25.04 29.4 84.8 20 4.6 40.3
18:20 1019 30.09 848 25.04 29.2 84.6 21 4.7 40.5
18:25 1019 30.09 848 25.04 29.3 84.8 20 4.4 39.9
18:30 1019 30.09 848 25.04 29.7 85.4 19 3.9 39.1
18:35 1019 30.09 848 25.04 30.1 86.1 18 3.2 37.7
18:40 1019 30.09 849 25.07 30.8 87.4 20 5.3 41.5
18:45 1019 30.09 849 25.07 30.1 86.2 25 8.4 47
18:50 1019 30.09 849 25.07 29.2 84.5 22 5.8 42.4
18:55 1019 30.09 849 25.07 29.6 85.3 22 5.8 42.4
19:00 1019 30.09 849 25.07 29.2 84.6 24 6.9 44.4
19:05 1020 30.12 849 25.07 28.3 83 24 6 42.8
19:10 1020 30.12 849 25.07 26.7 80.1 32 8.7 47.7
19:15 1020 30.12 849 25.07 25.4 77.6 33 8.1 46.5
19:20 1020 30.12 849 25.07 25.3 77.5 33 8.3 46.9
19:25 1020 30.12 849 25.07 25.5 77.9 31 7.5 45.5
19:30 1020 30.12 849 25.07 25.8 78.4 31 7.6 45.8
19:35 1020 30.12 849 25.07 25.9 78.7 30 7.2 44.9
19:40 1020 30.12 849 25.07 26.1 79 30 7.6 45.7
19:45 1020 30.12 849 25.07 26.1 78.9 30 7.6 45.7
19:50 1020 30.12 849 25.07 26.2 79.1 30 7.6 45.8
19:55 1020 30.12 849 25.07 26.3 79.4 37 10.7 51.3
20:00 1020 30.12 849 25.07 26.1 79 33 8.7 47.7
20:05 1020 30.12 849 25.07 26.2 79.2 32 8.7 47.7
20:10 1020 30.12 849 25.07 26.4 79.5 29 7.4 45.3
20:15 1020 30.12 849 25.07 26.5 79.8 29 7.2 44.9
20:20 1020 30.12 849 25.07 26.6 79.9 31 8.3 46.9
20:25 1020 30.12 849 25.07 26.2 79.1 33 8.9 48
20:30 1020 30.12 849 25.07 25.9 78.6 35 9.3 48.8
20:35 1020 30.12 849 25.07 25.5 77.8 35 9.1 48.5
20:40 1020 30.12 849 25.07 25.1 77.2 40 10.9 51.6
20:45 1020 30.12 849 25.07 24.9 76.8 41 11 51.8
20:50 1020 30.12 849 25.07 24.6 76.3 37 9.2 48.6
20:55 1020 30.12 849 25.07 24.4 76 43 11.4 52.5
21:00 1020 30.12 849 25.07 24.4 75.8 36 8.6 47.4
21:05 1020 30.12 850 25.1 24.1 75.4 35 8 46.5
21:10 1020 30.12 850 25.1 23.9 75 34 7.1 44.8
21:15 1021 30.15 850 25.1 23.8 74.9 33 6.7 44.1
21:20 1021 30.15 850 25.1 24 75.2 31 6.2 43.2
21:25 1021 30.15 850 25.1 24.1 75.3 30 5.7 42.2
21:30 1021 30.15 850 25.1 24.4 75.8 30 5.7 42.2
21:35 1021 30.15 850 25.1 24.3 75.8 31 6.3 43.3
21:40 1021 30.15 850 25.1 23.9 75.1 33 6.7 44.1
21:45 1021 30.15 851 25.13 23.4 74.1 37 8.3 46.9
21:50 1022 30.18 851 25.13 23.1 73.5 39 8.4 47.1
21:55 1022 30.18 851 25.13 23.1 73.6 37 7.9 46.3
22:00 1022 30.18 851 25.13 23.3 74 36 7.8 46
22:05 1022 30.18 851 25.13 23.6 74.4 35 7.6 45.6
22:10 1022 30.18 851 25.13 23.8 74.8 35 7.7 45.9
22:15 1022 30.18 851 25.13 23.7 74.7 35 7.7 45.9
22:20 1022 30.18 851 25.13 23.7 74.6 34 7 44.5
22:25 1022 30.18 851 25.13 23.7 74.6 34 7 44.7
22:30 1022 30.18 851 25.13 23.7 74.6 34 7.2 45
22:35 1022 30.18 851 25.13 23.5 74.3 34 7.1 44.8
22:40 1022 30.18 851 25.13 23.4 74.2 34 6.8 44.2
22:45 1022 30.18 851 25.13 23.6 74.4 33 6.6 43.9
22:50 1022 30.18 851 25.13 23.5 74.4 33 6.7 44
22:55 1022 30.18 851 25.13 23.5 74.2 34 6.9 44.4
23:00 1022 30.18 851 25.13 23.3 73.9 34 6.8 44.3
23:05 1022 30.18 851 25.13 23.3 73.9 34 6.9 44.4
23:10 1022 30.18 851 25.13 23.2 73.7 34 6.6 43.8
23:15 1022 30.18 851 25.13 23.2 73.7 36 7.4 45.3
23:20 1022 30.18 851 25.13 23.2 73.8 33 6.3 43.3
23:25 1022 30.18 851 25.13 23.3 73.9 34 6.7 44
23:30 1022 30.18 851 25.13 23.1 73.6 34 6.7 44.1
23:35 1022 30.18 851 25.13 23 73.5 34 6.7 44
23:40 1022 30.18 851 25.13 23 73.4 34 6.4 43.5
23:45 1022 30.18 851 25.13 23 73.4 33 6.2 43.2
23:50 1022 30.18 851 25.13 23 73.5 34 6.6 43.8
23:55 1022 30.18 851 25.13 23.1 73.6 34 6.4 43.5
24:00 1022 30.18 851 25.13 23.2 73.7 32 5.7 42.3